createdAt,value
2022-09-01T00:01:27.318Z,13.50
2022-09-01T00:02:59.778Z,13.50
2022-09-01T00:04:32.111Z,13.50
2022-09-01T00:06:10.287Z,13.50
2022-09-01T00:07:42.666Z,13.40
2022-09-01T00:09:19.715Z,13.40
2022-09-01T00:10:52.130Z,13.40
2022-09-01T00:12:25.791Z,13.40
2022-09-01T00:14:01.651Z,13.30
2022-09-01T00:15:37.532Z,13.30
2022-09-01T00:17:12.287Z,13.20
2022-09-01T00:18:52.228Z,13.20
2022-09-01T00:20:24.583Z,13.20
2022-09-01T00:21:57.885Z,13.20
2022-09-01T00:23:30.186Z,13.10
2022-09-01T00:25:02.539Z,13.10
2022-09-01T00:26:34.758Z,13.00
2022-09-01T00:28:07.129Z,13.00
2022-09-01T00:29:39.325Z,13.00
2022-09-01T00:31:19.510Z,13.00
2022-09-01T00:32:51.825Z,13.00
2022-09-01T00:34:24.373Z,13.00
2022-09-01T00:35:56.589Z,13.00
2022-09-01T00:37:29.337Z,13.00
2022-09-01T00:39:02.039Z,12.90
2022-09-01T00:40:35.092Z,12.90
2022-09-01T00:42:07.424Z,12.90
2022-09-01T00:44:07.431Z,12.80
2022-09-01T00:45:39.823Z,12.80
2022-09-01T00:47:12.059Z,12.80
2022-09-01T00:48:46.384Z,12.80
2022-09-01T00:50:20.931Z,12.80
2022-09-01T00:52:01.569Z,12.80
2022-09-01T00:53:35.926Z,12.80
2022-09-01T00:55:29.375Z,12.80
2022-09-01T00:57:04.815Z,12.80
2022-09-01T00:58:38.907Z,12.90
2022-09-01T01:00:26.183Z,12.90
2022-09-01T01:01:59.625Z,12.90
2022-09-01T01:03:32.946Z,12.90
2022-09-01T01:05:06.807Z,12.90
2022-09-01T01:06:40.939Z,12.90
2022-09-01T01:08:13.504Z,13.00
2022-09-01T01:09:47.164Z,13.00
2022-09-01T01:11:19.887Z,13.00
2022-09-01T01:12:52.720Z,13.00
2022-09-01T01:14:27.806Z,13.00
2022-09-01T01:16:00.808Z,13.00
2022-09-01T01:17:33.760Z,13.00
2022-09-01T01:19:28.163Z,13.00
2022-09-01T01:21:28.562Z,13.00
2022-09-01T01:23:16.084Z,13.00
2022-09-01T01:24:48.491Z,13.00
2022-09-01T01:26:20.828Z,13.00
2022-09-01T01:28:04.133Z,13.00
2022-09-01T01:29:38.796Z,13.00
2022-09-01T01:31:22.177Z,13.00
2022-09-01T01:32:57.863Z,13.00
2022-09-01T01:34:30.382Z,13.00
2022-09-01T01:36:03.697Z,13.00
2022-09-01T01:37:36.484Z,12.90
2022-09-01T01:39:20.926Z,12.90
2022-09-01T01:40:54.878Z,12.90
2022-09-01T01:42:28.997Z,12.90
2022-09-01T01:44:05.317Z,12.90
2022-09-01T01:45:37.920Z,12.90
2022-09-01T01:47:13.607Z,12.90
2022-09-01T01:48:47.117Z,12.90
2022-09-01T01:50:35.779Z,12.90
2022-09-01T01:52:08.384Z,12.90
2022-09-01T01:53:41.675Z,12.90
2022-09-01T01:55:19.357Z,12.90
2022-09-01T01:56:52.079Z,12.90
2022-09-01T01:58:25.515Z,12.90
2022-09-01T01:59:58.289Z,12.80
2022-09-01T02:01:32.120Z,12.80
2022-09-01T02:03:07.535Z,12.80
2022-09-01T02:04:40.723Z,12.80
2022-09-01T02:06:13.302Z,12.70
2022-09-01T02:07:45.656Z,12.80
2022-09-01T02:09:21.810Z,12.70
2022-09-01T02:10:57.831Z,12.70
2022-09-01T02:12:31.544Z,12.70
2022-09-01T02:14:07.884Z,12.70
2022-09-01T02:16:03.932Z,12.70
2022-09-01T02:17:39.149Z,12.60
2022-09-01T02:19:12.285Z,12.60
2022-09-01T02:20:47.899Z,12.60
2022-09-01T02:22:21.707Z,12.60
2022-09-01T02:24:04.674Z,12.50
2022-09-01T02:26:13.926Z,12.50
2022-09-01T02:27:39.589Z,12.50
2022-09-01T02:29:21.917Z,12.50
2022-09-01T02:30:59.636Z,12.40
2022-09-01T02:32:32.086Z,12.40
2022-09-01T02:34:04.306Z,12.40
2022-09-01T02:35:38.027Z,12.40
2022-09-01T02:37:10.504Z,12.40
2022-09-01T02:38:45.932Z,12.40
2022-09-01T02:40:19.011Z,12.40
2022-09-01T02:41:52.248Z,12.30
2022-09-01T02:43:28.192Z,12.30
2022-09-01T02:45:02.651Z,12.40
2022-09-01T02:46:36.442Z,12.30
2022-09-01T02:48:10.894Z,12.30
2022-09-01T02:49:43.267Z,12.30
2022-09-01T02:51:19.493Z,12.30
2022-09-01T02:52:52.680Z,12.30
2022-09-01T02:54:30.224Z,12.30
2022-09-01T02:56:09.521Z,12.30
2022-09-01T02:57:41.749Z,12.30
2022-09-01T02:59:16.663Z,12.30
2022-09-01T03:00:55.310Z,12.30
2022-09-01T03:02:28.938Z,12.30
2022-09-01T03:04:05.815Z,12.30
2022-09-01T03:05:39.414Z,12.30
2022-09-01T03:07:13.834Z,12.20
2022-09-01T03:08:47.775Z,12.20
2022-09-01T03:10:21.490Z,12.20
2022-09-01T03:11:56.767Z,12.20
2022-09-01T03:13:29.603Z,12.20
2022-09-01T03:15:02.304Z,12.20
2022-09-01T03:16:37.471Z,12.30
2022-09-01T03:18:12.793Z,12.20
2022-09-01T03:19:46.762Z,12.20
2022-09-01T03:21:21.356Z,12.20
2022-09-01T03:22:55.143Z,12.20
2022-09-01T03:24:27.317Z,12.20
2022-09-01T03:25:59.588Z,12.20
2022-09-01T03:27:33.474Z,12.20
2022-09-01T03:29:06.395Z,12.20
2022-09-01T03:30:40.888Z,12.20
2022-09-01T03:32:13.174Z,12.20
2022-09-01T03:33:46.171Z,12.10
2022-09-01T03:35:18.550Z,12.20
2022-09-01T03:36:51.317Z,12.20
2022-09-01T03:38:25.262Z,12.10
2022-09-01T03:39:58.983Z,12.20
2022-09-01T03:41:32.026Z,12.20
2022-09-01T03:43:13.515Z,12.20
2022-09-01T03:44:47.857Z,12.20
2022-09-01T03:46:22.193Z,12.20
2022-09-01T03:47:55.114Z,12.20
2022-09-01T03:49:27.946Z,12.20
2022-09-01T03:51:04.039Z,12.20
2022-09-01T03:52:39.319Z,12.20
2022-09-01T03:54:12.038Z,12.10
2022-09-01T03:55:47.548Z,12.20
2022-09-01T03:57:19.888Z,12.10
2022-09-01T03:58:53.416Z,12.10
2022-09-01T04:00:35.871Z,12.10
2022-09-01T04:02:08.660Z,12.10
2022-09-01T04:03:41.272Z,12.10
2022-09-01T04:05:14.163Z,12.10
2022-09-01T04:06:47.061Z,12.20
2022-09-01T04:08:32.313Z,12.30
2022-09-01T04:10:06.185Z,12.30
2022-09-01T04:11:42.550Z,12.30
2022-09-01T04:13:28.099Z,12.40
2022-09-01T04:15:00.650Z,12.40
2022-09-01T04:16:53.776Z,12.50
2022-09-01T04:18:26.996Z,12.50
2022-09-01T04:19:59.271Z,12.60
2022-09-01T04:21:33.402Z,12.70
2022-09-01T04:23:11.022Z,12.90
2022-09-01T04:24:46.111Z,13.10
2022-09-01T04:26:20.512Z,13.20
2022-09-01T04:27:55.466Z,13.20
2022-09-01T04:29:28.672Z,13.20
2022-09-01T04:31:07.407Z,13.20
2022-09-01T04:32:40.363Z,13.10
2022-09-01T04:34:13.792Z,13.10
2022-09-01T04:35:46.043Z,13.00
2022-09-01T04:37:22.036Z,13.10
2022-09-01T04:38:58.601Z,13.10
2022-09-01T04:40:31.026Z,13.10
2022-09-01T04:42:09.408Z,13.10
2022-09-01T04:43:42.124Z,13.10
2022-09-01T04:45:20.419Z,13.10
2022-09-01T04:46:52.866Z,13.20
2022-09-01T04:48:27.220Z,13.40
2022-09-01T04:50:02.082Z,14.00
2022-09-01T04:51:35.555Z,14.60
2022-09-01T04:53:12.004Z,15.10
2022-09-01T04:54:44.720Z,15.70
2022-09-01T04:56:23.044Z,16.20
2022-09-01T04:57:58.140Z,16.40
2022-09-01T04:59:30.936Z,16.80
2022-09-01T05:01:14.720Z,17.20
2022-09-01T05:02:47.314Z,17.60
2022-09-01T05:04:33.740Z,17.70
2022-09-01T05:06:13.702Z,17.90
2022-09-01T05:07:46.879Z,18.00
2022-09-01T05:09:20.547Z,18.20
2022-09-01T05:10:55.742Z,18.60
2022-09-01T05:12:29.452Z,19.00
2022-09-01T05:14:03.001Z,19.20
2022-09-01T05:15:46.689Z,19.50
2022-09-01T05:17:18.982Z,19.60
2022-09-01T05:18:56.941Z,19.60
2022-09-01T05:20:30.194Z,20.00
2022-09-01T05:22:04.775Z,20.10
2022-09-01T05:23:40.437Z,20.40
2022-09-01T05:25:13.446Z,20.50
2022-09-01T05:26:47.560Z,20.60
2022-09-01T05:28:24.676Z,20.60
2022-09-01T05:30:00.232Z,20.70
2022-09-01T05:31:35.141Z,21.00
2022-09-01T05:33:11.645Z,21.30
2022-09-01T05:34:45.156Z,21.30
2022-09-01T05:36:21.228Z,21.40
2022-09-01T05:37:54.599Z,21.60
2022-09-01T05:39:27.647Z,21.70
2022-09-01T05:41:08.574Z,21.70
2022-09-01T05:42:40.747Z,21.80
2022-09-01T05:44:15.634Z,21.90
2022-09-01T05:46:05.749Z,22.00
2022-09-01T05:47:40.930Z,22.10
2022-09-01T05:49:16.135Z,22.10
2022-09-01T05:50:49.668Z,22.40
2022-09-01T05:52:26.725Z,22.20
2022-09-01T05:53:59.329Z,22.40
2022-09-01T05:55:37.712Z,22.10
2022-09-01T05:57:32.800Z,22.10
2022-09-01T06:00:58.679Z,22.10
2022-09-01T06:02:31.073Z,22.10
2022-09-01T06:04:06.677Z,21.70
2022-09-01T06:05:39.826Z,21.40
2022-09-01T06:07:16.446Z,21.00
2022-09-01T06:08:50.917Z,20.60
2022-09-01T06:10:23.641Z,20.60
2022-09-01T06:11:57.145Z,20.80
2022-09-01T06:13:29.789Z,20.90
2022-09-01T06:15:04.140Z,20.70
2022-09-01T06:16:38.409Z,20.40
2022-09-01T06:18:12.684Z,20.10
2022-09-01T06:19:46.003Z,20.30
2022-09-01T06:21:18.488Z,20.30
2022-09-01T06:22:52.688Z,20.50
2022-09-01T06:24:25.228Z,20.60
2022-09-01T06:25:58.356Z,20.40
2022-09-01T06:27:30.627Z,20.60
2022-09-01T06:29:09.871Z,20.80
2022-09-01T06:30:44.384Z,20.80
2022-09-01T06:32:17.004Z,20.70
2022-09-01T06:33:51.385Z,20.80
2022-09-01T06:35:29.494Z,20.70
2022-09-01T06:37:02.134Z,20.60
2022-09-01T06:38:34.480Z,20.30
2022-09-01T06:40:17.142Z,20.00
2022-09-01T06:41:52.916Z,19.90
2022-09-01T06:43:25.711Z,19.80
2022-09-01T06:44:57.863Z,19.60
2022-09-01T06:46:30.159Z,19.90
2022-09-01T06:48:02.604Z,20.10
2022-09-01T06:49:36.689Z,20.10
2022-09-01T06:51:19.976Z,20.30
2022-09-01T06:54:54.006Z,20.10
2022-09-01T06:56:32.223Z,20.10
2022-09-01T06:58:12.978Z,20.00
2022-09-01T06:59:47.863Z,20.00
2022-09-01T07:01:27.774Z,20.10
2022-09-01T07:03:00.108Z,20.00
2022-09-01T07:04:32.560Z,20.10
2022-09-01T07:06:07.355Z,20.10
2022-09-01T07:13:25.758Z,20.20
2022-09-01T07:18:44.675Z,20.40
2022-09-01T07:20:32.132Z,20.30
2022-09-01T07:22:07.538Z,20.50
2022-09-01T07:26:00.656Z,20.90
2022-09-01T07:27:35.925Z,20.80
2022-09-01T07:29:13.017Z,20.70
2022-09-01T07:30:48.935Z,20.70
2022-09-01T07:36:25.989Z,21.00
2022-09-01T07:38:48.644Z,20.50
2022-09-01T07:39:51.226Z,20.70
2022-09-01T07:42:30.244Z,20.30
2022-09-01T07:43:28.405Z,20.40
2022-09-01T07:49:28.751Z,20.20
2022-09-01T07:52:49.606Z,20.90
2022-09-01T07:54:24.055Z,21.20
2022-09-01T07:55:58.999Z,21.20
2022-09-01T07:57:32.041Z,21.20
2022-09-01T07:59:04.510Z,21.40
2022-09-01T08:00:37.446Z,21.40
2022-09-01T08:02:10.376Z,21.30
2022-09-01T08:03:43.004Z,21.50
2022-09-01T08:05:22.471Z,21.60
2022-09-01T08:06:55.867Z,21.80
2022-09-01T08:08:29.467Z,22.00
2022-09-01T08:10:01.931Z,21.90
2022-09-01T08:12:00.633Z,22.00
2022-09-01T08:13:26.879Z,22.00
2022-09-01T08:15:41.242Z,22.10
2022-09-01T08:16:52.337Z,22.10
2022-09-01T08:18:25.515Z,22.10
2022-09-01T08:19:57.971Z,21.90
2022-09-01T08:21:30.111Z,21.80
2022-09-01T08:23:03.432Z,21.30
2022-09-01T08:24:35.730Z,21.00
2022-09-01T08:26:12.339Z,21.20
2022-09-01T08:27:45.317Z,21.20
2022-09-01T08:29:17.848Z,21.40
2022-09-01T08:30:52.511Z,21.10
2022-09-01T08:32:25.095Z,20.90
2022-09-01T08:33:58.331Z,20.70
2022-09-01T08:35:31.090Z,20.80
2022-09-01T08:37:06.895Z,20.60
2022-09-01T08:38:41.111Z,20.60
2022-09-01T08:40:19.033Z,20.80
2022-09-01T08:42:10.564Z,20.30
2022-09-01T08:44:10.221Z,20.30
2022-09-01T08:45:48.418Z,20.20
2022-09-01T08:47:35.555Z,20.00
2022-09-01T08:49:26.571Z,20.10
2022-09-01T08:51:24.645Z,20.00
2022-09-01T08:53:16.094Z,20.20
2022-09-01T08:55:27.321Z,20.10
2022-09-01T08:57:06.772Z,20.20
2022-09-01T08:58:39.656Z,20.00
2022-09-01T09:00:18.217Z,19.80
2022-09-01T09:02:15.112Z,19.90
2022-09-01T09:04:08.315Z,19.80
2022-09-01T09:06:11.686Z,20.00
2022-09-01T09:08:40.178Z,20.30
2022-09-01T09:10:24.196Z,20.40
2022-09-01T09:12:12.350Z,20.40
2022-09-01T09:14:11.390Z,20.60
2022-09-01T09:16:12.914Z,20.70
2022-09-01T09:18:34.432Z,20.70
2022-09-01T09:20:08.875Z,21.10
2022-09-01T09:21:49.067Z,21.50
2022-09-01T09:23:47.274Z,21.70
2022-09-01T09:25:19.939Z,21.50
2022-09-01T09:26:56.647Z,21.70
2022-09-01T09:28:29.017Z,22.10
2022-09-01T09:30:12.059Z,22.20
2022-09-01T09:31:50.623Z,22.00
2022-09-01T09:33:55.568Z,21.80
2022-09-01T09:35:48.299Z,21.90
2022-09-01T09:37:20.784Z,21.60
2022-09-01T09:39:18.233Z,21.50
2022-09-01T09:41:27.652Z,21.30
2022-09-01T09:43:07.415Z,21.30
2022-09-01T09:44:49.213Z,21.40
2022-09-01T09:46:43.699Z,21.30
2022-09-01T09:48:32.844Z,21.60
2022-09-01T09:50:21.410Z,21.30
2022-09-01T09:52:04.271Z,21.60
2022-09-01T09:53:36.792Z,21.40
2022-09-01T09:55:30.615Z,21.50
2022-09-01T09:57:24.460Z,21.40
2022-09-01T09:58:56.729Z,21.40
2022-09-01T10:00:36.406Z,21.30
2022-09-01T10:02:37.848Z,21.40
2022-09-01T10:04:10.297Z,20.90
2022-09-01T10:05:48.378Z,20.50
2022-09-01T10:07:37.682Z,20.50
2022-09-01T10:09:17.847Z,20.40
2022-09-01T10:10:57.453Z,20.70
2022-09-01T10:12:32.020Z,20.80
2022-09-01T10:14:47.540Z,20.90
2022-09-01T10:16:27.796Z,21.00
2022-09-01T10:18:20.606Z,21.50
2022-09-01T10:20:06.834Z,21.60
2022-09-01T10:21:45.025Z,21.70
2022-09-01T10:23:18.431Z,22.00
2022-09-01T10:24:51.117Z,22.10
2022-09-01T10:26:41.367Z,22.40
2022-09-01T10:28:24.303Z,22.80
2022-09-01T10:30:18.987Z,22.80
2022-09-01T10:32:14.856Z,22.90
2022-09-01T10:33:50.002Z,22.80
2022-09-01T10:35:31.744Z,22.80
2022-09-01T10:37:11.382Z,22.60
2022-09-01T10:38:52.731Z,22.20
2022-09-01T10:40:31.143Z,21.60
2022-09-01T10:42:19.517Z,21.70
2022-09-01T10:43:52.306Z,21.40
2022-09-01T10:45:38.767Z,21.40
2022-09-01T10:47:33.880Z,21.80
2022-09-01T10:49:25.168Z,21.40
2022-09-01T10:51:19.177Z,21.50
2022-09-01T10:53:02.416Z,22.00
2022-09-01T10:54:51.046Z,22.20
2022-09-01T10:56:43.676Z,22.10
2022-09-01T11:00:35.834Z,21.60
2022-09-01T11:02:26.366Z,21.60
2022-09-01T11:04:00.728Z,21.90
2022-09-01T11:06:13.442Z,22.10
2022-09-01T11:08:14.609Z,22.20
2022-09-01T11:09:45.721Z,22.10
2022-09-01T11:11:42.887Z,22.00
2022-09-01T11:13:36.473Z,21.80
2022-09-01T11:15:14.592Z,21.80
2022-09-01T11:17:25.579Z,22.00
2022-09-01T11:19:27.573Z,22.30
2022-09-01T11:21:30.211Z,22.70
2022-09-01T11:23:14.946Z,22.20
2022-09-01T11:25:12.576Z,21.80
2022-09-01T11:26:48.960Z,21.60
2022-09-01T11:28:24.131Z,21.50
2022-09-01T11:30:09.239Z,21.60
2022-09-01T11:31:44.771Z,21.30
2022-09-01T11:33:17.102Z,21.50
2022-09-01T11:34:54.299Z,21.50
2022-09-01T11:36:35.692Z,21.50
2022-09-01T11:38:13.984Z,21.50
2022-09-01T11:39:55.539Z,21.40
2022-09-01T11:42:19.756Z,21.10
2022-09-01T11:43:58.199Z,21.50
2022-09-01T11:45:35.966Z,21.30
2022-09-01T11:47:25.445Z,21.20
2022-09-01T11:49:03.058Z,21.00
2022-09-01T11:50:42.335Z,20.90
2022-09-01T11:52:21.126Z,20.80
2022-09-01T11:54:00.655Z,20.80
2022-09-01T11:55:40.799Z,20.80
2022-09-01T11:57:37.749Z,20.90
2022-09-01T11:59:10.073Z,21.50
2022-09-01T12:00:43.526Z,21.50
2022-09-01T12:02:28.082Z,21.80
2022-09-01T12:04:40.146Z,22.20
2022-09-01T12:06:23.444Z,22.20
2022-09-01T12:07:57.804Z,22.60
2022-09-01T12:09:48.401Z,23.10
2022-09-01T12:11:34.212Z,23.50
2022-09-01T12:13:12.435Z,23.60
2022-09-01T12:15:05.597Z,23.80
2022-09-01T12:16:42.645Z,23.40
2022-09-01T12:18:22.050Z,23.70
2022-09-01T12:19:54.620Z,23.50
2022-09-01T12:21:40.405Z,23.30
2022-09-01T12:23:29.768Z,23.30
2022-09-01T12:25:02.332Z,23.20
2022-09-01T12:26:34.609Z,23.20
2022-09-01T12:28:07.787Z,23.40
2022-09-01T12:29:44.618Z,22.90
2022-09-01T12:31:24.829Z,22.90
2022-09-01T12:35:15.003Z,23.10
2022-09-01T12:37:24.438Z,23.30
2022-09-01T12:39:17.647Z,22.70
2022-09-01T12:40:56.420Z,22.60
2022-09-01T12:42:40.973Z,22.30
2022-09-01T12:44:43.096Z,22.00
2022-09-01T12:46:43.743Z,21.60
2022-09-01T12:48:40.983Z,21.30
2022-09-01T12:50:16.944Z,21.30
2022-09-01T12:51:49.327Z,21.50
2022-09-01T12:56:33.895Z,22.30
2022-09-01T12:58:09.812Z,22.60
2022-09-01T12:59:42.225Z,22.80
2022-09-01T13:01:33.915Z,22.80
2022-09-01T13:03:17.949Z,23.00
2022-09-01T13:04:50.349Z,23.00
2022-09-01T13:06:22.612Z,23.40
2022-09-01T13:07:57.543Z,23.60
2022-09-01T13:09:30.008Z,23.50
2022-09-01T13:11:14.182Z,23.50
2022-09-01T13:12:46.635Z,23.40
2022-09-01T13:14:19.063Z,23.10
2022-09-01T13:15:56.474Z,23.00
2022-09-01T13:17:29.233Z,23.20
2022-09-01T13:19:26.518Z,23.00
2022-09-01T13:20:56.769Z,23.00
2022-09-01T13:22:29.097Z,23.30
2022-09-01T13:24:07.359Z,23.30
2022-09-01T13:25:40.855Z,23.10
2022-09-01T13:27:22.713Z,23.30
2022-09-01T13:28:55.172Z,23.30
2022-09-01T13:30:28.592Z,23.30
2022-09-01T13:32:18.442Z,23.60
2022-09-01T13:35:44.889Z,23.70
2022-09-01T13:37:17.314Z,23.70
2022-09-01T13:38:50.690Z,23.60
2022-09-01T13:40:27.994Z,23.60
2022-09-01T13:42:00.385Z,23.70
2022-09-01T13:43:34.574Z,24.00
2022-09-01T13:45:07.647Z,24.30
2022-09-01T13:51:13.308Z,23.90
2022-09-01T13:52:21.833Z,23.60
2022-09-01T13:53:54.630Z,23.30
2022-09-01T13:55:32.180Z,23.10
2022-09-01T13:57:04.600Z,22.80
2022-09-01T13:58:37.055Z,22.70
2022-09-01T14:00:15.836Z,22.40
2022-09-01T14:01:48.380Z,22.30
2022-09-01T14:03:23.903Z,22.20
2022-09-01T14:04:56.101Z,22.00
2022-09-01T14:06:28.552Z,21.80
2022-09-01T14:08:01.680Z,21.90
2022-09-01T14:09:35.490Z,21.60
2022-09-01T14:11:09.199Z,21.40
2022-09-01T14:12:42.922Z,21.10
2022-09-01T14:14:16.011Z,21.00
2022-09-01T14:15:49.525Z,20.80
2022-09-01T14:17:21.740Z,20.80
2022-09-01T14:18:54.357Z,20.70
2022-09-01T14:20:36.064Z,20.60
2022-09-01T14:22:09.323Z,20.50
2022-09-01T14:23:43.774Z,20.60
2022-09-01T14:25:19.331Z,20.70
2022-09-01T14:26:51.679Z,20.60
2022-09-01T14:28:24.500Z,20.50
2022-09-01T14:29:56.765Z,20.40
2022-09-01T14:31:32.004Z,20.40
2022-09-01T14:33:04.359Z,20.50
2022-09-01T14:34:37.496Z,20.30
2022-09-01T14:36:22.793Z,20.30
2022-09-01T14:37:56.630Z,20.10
2022-09-01T14:39:28.790Z,20.20
2022-09-01T14:41:02.407Z,20.10
2022-09-01T14:42:37.079Z,20.10
2022-09-01T14:44:09.691Z,20.00
2022-09-01T14:45:48.316Z,20.00
2022-09-01T14:47:22.188Z,20.10
2022-09-01T14:48:54.348Z,20.20
2022-09-01T14:50:30.289Z,20.40
2022-09-01T14:52:11.829Z,20.60
2022-09-01T14:53:44.456Z,20.50
2022-09-01T14:55:17.058Z,20.60
2022-09-01T14:58:45.253Z,20.40
2022-09-01T15:00:17.925Z,20.50
2022-09-01T15:01:50.526Z,20.70
2022-09-01T15:03:24.174Z,20.80
2022-09-01T15:04:57.235Z,21.00
2022-09-01T15:06:29.553Z,21.00
2022-09-01T15:08:02.414Z,21.10
2022-09-01T15:09:35.527Z,21.20
2022-09-01T15:11:15.180Z,21.20
2022-09-01T15:12:49.738Z,21.30
2022-09-01T15:14:22.546Z,21.50
2022-09-01T15:15:54.876Z,21.40
2022-09-01T15:17:29.199Z,21.30
2022-09-01T15:19:01.674Z,21.30
2022-09-01T15:20:50.480Z,21.20
2022-09-01T15:22:22.738Z,21.40
2022-09-01T15:23:55.555Z,21.40
2022-09-01T15:25:28.452Z,21.30
2022-09-01T15:27:01.252Z,21.10
2022-09-01T15:28:33.486Z,21.10
2022-09-01T15:30:17.096Z,21.00
2022-09-01T15:31:50.076Z,20.90
2022-09-01T15:33:22.882Z,20.60
2022-09-01T15:34:55.747Z,20.40
2022-09-01T15:36:30.215Z,20.60
2022-09-01T15:38:03.152Z,20.50
2022-09-01T15:39:37.739Z,20.60
2022-09-01T15:41:16.819Z,20.60
2022-09-01T15:42:49.257Z,20.60
2022-09-01T15:44:22.967Z,20.60
2022-09-01T15:45:58.696Z,20.60
2022-09-01T15:47:31.560Z,20.60
2022-09-01T15:49:08.686Z,20.60
2022-09-01T15:50:41.019Z,20.40
2022-09-01T15:52:13.939Z,20.30
2022-09-01T15:53:46.280Z,20.20
2022-09-01T15:55:27.194Z,20.20
2022-09-01T15:56:59.340Z,20.10
2022-09-01T15:58:44.408Z,20.10
2022-09-01T16:00:26.105Z,20.00
2022-09-01T16:01:58.873Z,20.00
2022-09-01T16:03:32.019Z,20.00
2022-09-01T16:05:05.686Z,20.10
2022-09-01T16:06:42.080Z,20.10
2022-09-01T16:08:14.431Z,20.10
2022-09-01T16:09:46.557Z,20.00
2022-09-01T16:11:19.017Z,19.80
2022-09-01T16:12:52.602Z,19.60
2022-09-01T16:14:24.886Z,19.50
2022-09-01T16:16:17.720Z,19.30
2022-09-01T16:18:17.306Z,19.20
2022-09-01T16:19:59.743Z,19.10
2022-09-01T16:21:32.046Z,19.10
2022-09-01T16:23:23.359Z,19.00
2022-09-01T16:25:04.241Z,18.90
2022-09-01T16:26:38.663Z,18.80
2022-09-01T16:28:20.866Z,18.70
2022-09-01T16:30:04.799Z,18.70
2022-09-01T16:31:37.321Z,18.70
2022-09-01T16:33:19.943Z,18.60
2022-09-01T16:34:53.419Z,18.50
2022-09-01T16:37:15.767Z,18.50
2022-09-01T16:38:55.837Z,18.50
2022-09-01T16:40:52.538Z,18.40
2022-09-01T16:42:36.322Z,18.30
2022-09-01T16:44:45.272Z,18.30
2022-09-01T16:46:30.203Z,18.30
2022-09-01T16:48:47.285Z,18.30
2022-09-01T16:50:34.543Z,18.20
2022-09-01T16:52:23.980Z,18.10
2022-09-01T16:54:06.097Z,18.10
2022-09-01T16:55:56.283Z,18.10
2022-09-01T16:57:38.029Z,18.10
2022-09-01T16:59:22.062Z,18.10
2022-09-01T17:01:08.858Z,18.20
2022-09-01T17:03:08.238Z,18.20
2022-09-01T17:04:52.624Z,18.20
2022-09-01T17:06:39.213Z,18.20
2022-09-01T17:08:29.529Z,18.10
2022-09-01T17:10:26.052Z,18.00
2022-09-01T17:12:03.899Z,18.10
2022-09-01T17:13:56.088Z,18.00
2022-09-01T17:15:41.116Z,17.90
2022-09-01T17:17:20.847Z,17.80
2022-09-01T17:19:00.423Z,17.70
2022-09-01T17:20:40.187Z,17.50
2022-09-01T17:22:15.095Z,17.60
2022-09-01T17:24:12.326Z,17.40
2022-09-01T17:26:01.779Z,17.40
2022-09-01T17:27:59.870Z,17.30
2022-09-01T17:29:51.855Z,17.20
2022-09-01T17:31:24.185Z,17.20
2022-09-01T17:33:18.442Z,17.00
2022-09-01T17:35:11.259Z,17.00
2022-09-01T17:37:18.397Z,17.00
2022-09-01T17:39:09.319Z,16.90
2022-09-01T17:40:53.812Z,16.80
2022-09-01T17:42:42.162Z,16.70
2022-09-01T17:44:29.787Z,16.70
2022-09-01T17:46:41.601Z,16.70
2022-09-01T17:48:40.559Z,16.50
2022-09-01T17:50:24.708Z,16.50
2022-09-01T17:52:20.644Z,16.50
2022-09-01T17:54:14.958Z,16.40
2022-09-01T17:56:09.348Z,16.30
2022-09-01T17:58:06.952Z,16.30
2022-09-01T18:00:09.814Z,16.30
2022-09-01T18:01:51.713Z,16.20
2022-09-01T18:03:57.872Z,16.20
2022-09-01T18:05:42.407Z,16.20
2022-09-01T18:08:04.732Z,16.10
2022-09-01T18:09:53.053Z,16.00
2022-09-01T18:11:40.973Z,16.00
2022-09-01T18:13:55.472Z,16.00
2022-09-01T18:15:31.881Z,15.90
2022-09-01T18:17:22.928Z,15.90
2022-09-01T18:19:04.754Z,15.80
2022-09-01T18:20:48.895Z,15.80
2022-09-01T18:22:25.794Z,15.80
2022-09-01T18:24:45.943Z,15.80
2022-09-01T18:26:36.843Z,15.80
2022-09-01T18:28:10.191Z,15.70
2022-09-01T18:29:43.257Z,15.70
2022-09-01T18:31:33.983Z,15.70
2022-09-01T18:33:22.165Z,15.70
2022-09-01T18:35:15.658Z,15.70
2022-09-01T18:37:19.164Z,15.70
2022-09-01T18:39:16.093Z,15.70
2022-09-01T18:41:03.818Z,15.60
2022-09-01T18:43:20.835Z,15.70
2022-09-01T18:45:14.983Z,15.70
2022-09-01T18:47:20.070Z,15.60
2022-09-01T18:49:15.643Z,15.60
2022-09-01T18:51:12.296Z,15.60
2022-09-01T18:53:05.689Z,15.50
2022-09-01T18:55:24.409Z,15.50
2022-09-01T18:57:10.440Z,15.40
2022-09-01T18:59:01.563Z,15.40
2022-09-01T19:01:08.634Z,15.40
2022-09-01T19:03:11.568Z,15.40
2022-09-01T19:04:46.024Z,15.30
2022-09-01T19:06:30.869Z,15.30
2022-09-01T19:08:50.963Z,15.30
2022-09-01T19:11:08.020Z,15.30
2022-09-01T19:13:33.572Z,15.30
2022-09-01T19:15:35.067Z,15.20
2022-09-01T19:17:25.972Z,15.10
2022-09-01T19:19:22.560Z,15.10
2022-09-01T19:21:28.039Z,15.10
2022-09-01T19:23:12.375Z,15.10
2022-09-01T19:25:22.829Z,15.00
2022-09-01T19:27:09.885Z,15.00
2022-09-01T19:29:04.479Z,15.00
2022-09-01T19:30:45.462Z,15.00
2022-09-01T19:32:22.681Z,14.90
2022-09-01T19:34:12.167Z,15.00
2022-09-01T19:35:51.222Z,15.00
2022-09-01T19:37:23.554Z,14.90
2022-09-01T19:38:56.463Z,14.90
2022-09-01T19:40:37.486Z,14.90
2022-09-01T19:42:34.309Z,14.80
2022-09-01T19:44:44.663Z,14.90
2022-09-01T19:46:41.285Z,14.80
2022-09-01T19:48:21.979Z,14.80
2022-09-01T19:50:24.340Z,14.70
2022-09-01T19:52:40.055Z,14.70
2022-09-01T19:54:30.891Z,14.70
2022-09-01T19:56:37.323Z,14.60
2022-09-01T19:58:35.687Z,14.60
2022-09-01T20:00:25.423Z,14.60
2022-09-01T20:02:08.903Z,14.60
2022-09-01T20:03:53.676Z,14.50
2022-09-01T20:05:40.576Z,14.50
2022-09-01T20:07:25.686Z,14.50
2022-09-01T20:09:16.461Z,14.40
2022-09-01T20:11:31.421Z,14.40
2022-09-01T20:13:57.807Z,14.40
2022-09-01T20:16:12.599Z,14.30
2022-09-01T20:18:13.918Z,14.30
2022-09-01T20:20:00.472Z,14.30
2022-09-01T20:21:39.908Z,14.20
2022-09-01T20:23:29.421Z,14.20
2022-09-01T20:25:27.443Z,14.20
2022-09-01T20:27:03.883Z,14.10
2022-09-01T20:29:12.468Z,14.10
2022-09-01T20:30:58.362Z,14.00
2022-09-01T20:32:58.075Z,14.00
2022-09-01T20:34:55.247Z,14.00
2022-09-01T20:37:09.396Z,13.90
2022-09-01T20:39:22.435Z,13.90
2022-09-01T20:41:00.712Z,13.90
2022-09-01T20:43:08.456Z,13.90
2022-09-01T20:45:22.125Z,13.80
2022-09-01T20:46:54.321Z,13.80
2022-09-01T20:48:30.297Z,13.80
2022-09-01T20:50:12.090Z,13.80
2022-09-01T20:51:58.884Z,13.70
2022-09-01T20:53:48.951Z,13.70
2022-09-01T20:55:30.611Z,13.70
2022-09-01T20:57:15.636Z,13.70
2022-09-01T20:59:08.918Z,13.60
2022-09-01T21:01:07.996Z,13.60
2022-09-01T21:03:11.892Z,13.60
2022-09-01T21:05:11.049Z,13.50
2022-09-01T21:07:19.258Z,13.50
2022-09-01T21:09:09.897Z,13.40
2022-09-01T21:10:53.755Z,13.40
2022-09-01T21:12:51.804Z,13.30
2022-09-01T21:14:42.536Z,13.30
2022-09-01T21:16:41.178Z,13.30
2022-09-01T21:19:00.322Z,13.30
2022-09-01T21:20:53.774Z,13.20
2022-09-01T21:22:29.437Z,13.10
2022-09-01T21:24:02.431Z,13.10
2022-09-01T21:25:34.985Z,13.10
2022-09-01T21:27:16.031Z,13.10
2022-09-01T21:28:55.272Z,13.10
2022-09-01T21:30:34.027Z,13.10
2022-09-01T21:32:06.412Z,13.10
2022-09-01T21:33:38.773Z,13.00
2022-09-01T21:35:16.198Z,13.00
2022-09-01T21:36:48.622Z,13.00
2022-09-01T21:38:20.945Z,12.90
2022-09-01T21:39:55.155Z,12.90
2022-09-01T21:41:27.575Z,12.90
2022-09-01T21:43:06.360Z,12.90
2022-09-01T21:44:40.603Z,12.80
2022-09-01T21:46:15.278Z,12.80
2022-09-01T21:47:50.180Z,12.80
2022-09-01T21:49:22.569Z,12.80
2022-09-01T21:50:54.997Z,12.80
2022-09-01T21:52:27.751Z,12.80
2022-09-01T21:54:00.203Z,12.70
2022-09-01T21:55:32.543Z,12.70
2022-09-01T21:57:05.460Z,12.70
2022-09-01T21:58:39.597Z,12.70
2022-09-01T22:00:24.339Z,12.60
2022-09-01T22:01:56.799Z,12.60
2022-09-01T22:03:29.092Z,12.60
2022-09-01T22:05:05.645Z,12.60
2022-09-01T22:06:40.215Z,12.60
2022-09-01T22:08:16.226Z,12.50
2022-09-01T22:09:48.592Z,12.40
2022-09-01T22:11:21.812Z,12.40
2022-09-01T22:12:56.021Z,12.30
2022-09-01T22:14:29.225Z,12.30
2022-09-01T22:16:02.764Z,12.20
2022-09-01T22:17:35.212Z,12.20
2022-09-01T22:19:07.611Z,12.20
2022-09-01T22:20:41.141Z,12.20
2022-09-01T22:22:13.407Z,12.20
2022-09-01T22:23:46.790Z,12.20